createdAt,value
2022-07-30T00:01:52.043Z,101879.59
2022-07-30T00:04:18.762Z,101876.09
2022-07-30T00:06:45.650Z,101872.63
2022-07-30T00:09:12.161Z,101869.19
2022-07-30T00:11:38.674Z,101877.00
2022-07-30T00:14:05.404Z,101881.31
2022-07-30T00:16:31.989Z,101882.19
2022-07-30T00:18:58.564Z,101870.03
2022-07-30T00:21:35.666Z,101876.16
2022-07-30T00:24:03.569Z,101870.94
2022-07-30T00:26:30.250Z,101863.97
2022-07-30T00:28:56.794Z,101864.00
2022-07-30T00:31:23.318Z,101866.59
2022-07-30T00:33:49.918Z,101866.59
2022-07-30T00:36:16.414Z,101866.56
2022-07-30T00:38:42.908Z,101868.31
2022-07-30T00:41:09.612Z,101867.47
2022-07-30T00:43:36.147Z,101864.00
2022-07-30T00:46:02.705Z,101863.09
2022-07-30T00:48:29.291Z,101854.44
2022-07-30T00:50:55.789Z,101856.16
2022-07-30T00:53:24.004Z,101857.91
2022-07-30T00:55:50.579Z,101851.84
2022-07-30T00:58:17.070Z,101848.38
2022-07-30T01:00:43.921Z,101852.69
2022-07-30T01:03:10.670Z,101856.19
2022-07-30T01:05:37.212Z,101851.84
2022-07-30T01:08:03.944Z,101852.69
2022-07-30T01:10:30.593Z,101851.81
2022-07-30T01:12:59.114Z,101861.38
2022-07-30T01:15:26.821Z,101850.06
2022-07-30T01:17:56.853Z,101841.41
2022-07-30T01:20:30.051Z,101855.28
2022-07-30T01:22:59.670Z,101857.91
2022-07-30T01:25:32.205Z,101849.22
2022-07-30T01:28:03.811Z,101855.25
2022-07-30T01:30:34.808Z,101849.22
2022-07-30T01:33:03.193Z,101850.09
2022-07-30T01:35:31.642Z,101850.06
2022-07-30T01:38:00.983Z,101849.19
2022-07-30T01:40:29.466Z,101847.47
2022-07-30T01:42:58.593Z,101838.78
2022-07-30T01:45:28.210Z,101849.19
2022-07-30T01:47:57.805Z,101847.47
2022-07-30T01:50:24.998Z,101844.84
2022-07-30T01:52:53.971Z,101846.59
2022-07-30T01:55:27.163Z,101849.19
2022-07-30T01:57:55.804Z,101846.56
2022-07-30T02:00:24.549Z,101839.63
2022-07-30T02:02:51.104Z,101854.38
2022-07-30T02:05:17.696Z,101843.97
2022-07-30T02:08:12.826Z,101842.28
2022-07-30T02:10:48.762Z,101847.44
2022-07-30T02:13:20.290Z,101847.47
2022-07-30T02:15:55.130Z,101842.22
2022-07-30T02:18:27.999Z,101848.28
2022-07-30T02:21:07.279Z,101846.53
2022-07-30T02:23:44.189Z,101851.72
2022-07-30T02:26:18.559Z,101847.41
2022-07-30T02:28:49.475Z,101838.72
2022-07-30T02:31:19.391Z,101857.78
2022-07-30T02:33:49.811Z,101848.25
2022-07-30T02:36:19.662Z,101856.91
2022-07-30T02:38:47.805Z,101852.59
2022-07-30T02:41:15.379Z,101853.47
2022-07-30T02:43:42.678Z,101856.03
2022-07-30T02:46:12.289Z,101852.56
2022-07-30T02:48:40.842Z,101847.34
2022-07-30T02:51:09.488Z,101852.56
2022-07-30T02:53:38.431Z,101855.16
2022-07-30T02:56:08.046Z,101856.03
2022-07-30T02:58:35.812Z,101862.09
2022-07-30T03:01:03.227Z,101860.34
2022-07-30T03:03:31.175Z,101865.56
2022-07-30T03:05:59.577Z,101849.13
2022-07-30T03:08:27.749Z,101859.50
2022-07-30T03:10:55.802Z,101858.63
2022-07-30T03:13:24.341Z,101854.28
2022-07-30T03:15:52.793Z,101854.28
2022-07-30T03:18:21.364Z,101868.16
2022-07-30T03:20:51.693Z,101853.41
2022-07-30T03:23:19.891Z,101857.72
2022-07-30T03:25:54.583Z,101851.63
2022-07-30T03:28:23.865Z,101853.38
2022-07-30T03:30:52.590Z,101851.69
2022-07-30T03:33:20.832Z,101846.44
2022-07-30T03:35:49.310Z,101843.84
2022-07-30T03:38:17.654Z,101851.66
2022-07-30T03:40:45.592Z,101842.91
2022-07-30T03:43:32.658Z,101855.91
2022-07-30T03:46:02.875Z,101848.03
2022-07-30T03:48:30.442Z,101855.84
2022-07-30T03:50:58.578Z,101850.63
2022-07-30T03:53:25.432Z,101851.44
2022-07-30T03:55:53.208Z,101857.50
2022-07-30T03:58:19.855Z,101852.31
2022-07-30T04:00:51.110Z,101859.22
2022-07-30T04:03:27.788Z,101859.22
2022-07-30T04:05:54.432Z,101861.81
2022-07-30T04:08:21.151Z,101858.31
2022-07-30T04:10:49.145Z,101873.03
2022-07-30T04:13:16.002Z,101871.31
2022-07-30T04:16:39.425Z,101873.06
2022-07-30T04:19:06.750Z,101874.75
2022-07-30T04:21:35.072Z,101867.81
2022-07-30T04:24:05.034Z,101879.09
2022-07-30T04:26:35.852Z,101878.25
2022-07-30T04:29:05.609Z,101876.47
2022-07-30T04:31:40.172Z,101872.16
2022-07-30T04:34:08.282Z,101878.22
2022-07-30T04:36:35.866Z,101878.22
2022-07-30T04:39:03.528Z,101882.59
2022-07-30T04:41:37.159Z,101875.66
2022-07-30T04:44:17.685Z,101881.72
2022-07-30T04:46:44.252Z,101880.91
2022-07-30T04:49:12.727Z,101883.53
2022-07-30T04:51:40.499Z,101882.66
2022-07-30T04:54:15.299Z,101879.22
2022-07-30T04:56:53.523Z,101880.09
2022-07-30T04:59:23.624Z,101881.88
2022-07-30T05:01:51.168Z,101880.22
2022-07-30T05:04:18.535Z,101879.38
2022-07-30T05:06:45.973Z,101888.97
2022-07-30T05:09:14.974Z,101884.69
2022-07-30T05:11:41.527Z,101888.19
2022-07-30T05:14:08.024Z,101877.81
2022-07-30T05:16:35.744Z,101889.09
2022-07-30T05:19:02.302Z,101896.06
2022-07-30T05:21:35.271Z,101893.47
2022-07-30T05:24:01.915Z,101884.75
2022-07-30T05:26:29.091Z,101893.31
2022-07-30T05:28:57.014Z,101885.38
2022-07-30T05:31:25.151Z,101893.75
2022-07-30T05:33:52.309Z,101892.63
2022-07-30T05:36:20.616Z,101889.69
2022-07-30T05:38:47.933Z,101896.28
2022-07-30T05:41:30.684Z,101895.84
2022-07-30T05:43:59.297Z,101893.84
2022-07-30T05:46:26.151Z,101899.66
2022-07-30T05:48:53.165Z,101906.50
2022-07-30T05:51:20.776Z,101904.22
2022-07-30T05:53:47.809Z,101906.53
2022-07-30T05:56:14.327Z,101912.97
2022-07-30T05:58:40.871Z,101910.00
2022-07-30T06:01:07.605Z,101921.41
2022-07-30T06:03:35.052Z,101912.06
2022-07-30T06:06:05.169Z,101911.94
2022-07-30T06:08:32.046Z,101922.38
2022-07-30T06:10:58.725Z,101923.72
2022-07-30T06:13:25.763Z,101922.53
2022-07-30T06:15:52.640Z,101916.19
2022-07-30T06:18:19.207Z,101927.72
2022-07-30T06:20:51.827Z,101931.25
2022-07-30T06:23:18.805Z,101930.16
2022-07-30T06:25:45.323Z,101928.34
2022-07-30T06:28:36.051Z,101937.03
2022-07-30T06:30:58.791Z,101939.91
2022-07-30T06:33:25.353Z,101937.28
2022-07-30T06:35:51.960Z,101939.84
2022-07-30T06:38:18.609Z,101943.16
2022-07-30T06:40:45.108Z,101936.88
2022-07-30T06:43:11.647Z,101932.63
2022-07-30T06:45:39.427Z,101935.16
2022-07-30T06:48:06.393Z,101928.72
2022-07-30T06:50:32.951Z,101933.13
2022-07-30T06:52:59.547Z,101921.00
2022-07-30T06:55:26.044Z,101934.94
2022-07-30T06:57:52.588Z,101935.13
2022-07-30T07:00:19.448Z,101927.59
2022-07-30T07:02:46.127Z,101940.47
2022-07-30T07:05:12.779Z,101937.25
2022-07-30T07:07:44.505Z,101934.41
2022-07-30T07:10:15.543Z,101938.16
2022-07-30T07:12:42.081Z,101941.59
2022-07-30T07:15:09.098Z,101940.03
2022-07-30T07:17:35.674Z,101927.44
2022-07-30T07:20:03.007Z,101949.72
2022-07-30T07:22:30.023Z,101948.28
2022-07-30T07:24:56.803Z,101948.25
2022-07-30T07:27:23.589Z,101947.38
2022-07-30T07:30:05.133Z,101941.31
2022-07-30T07:32:34.266Z,101946.28
2022-07-30T07:35:01.456Z,101953.03
2022-07-30T07:37:28.077Z,101947.84
2022-07-30T07:39:54.589Z,101956.75
2022-07-30T07:42:21.093Z,101955.56
2022-07-30T07:44:47.630Z,101950.47
2022-07-30T07:47:14.246Z,101960.31
2022-07-30T07:49:40.900Z,101956.47
2022-07-30T07:52:07.581Z,101954.03
2022-07-30T07:54:34.268Z,101946.22
2022-07-30T07:57:03.155Z,101952.53
2022-07-30T07:59:36.112Z,101948.47
2022-07-30T08:02:06.453Z,101954.44
2022-07-30T08:04:34.495Z,101954.47
2022-07-30T08:07:01.251Z,101947.94
2022-07-30T08:09:27.948Z,101951.84
2022-07-30T08:12:11.628Z,101945.59
2022-07-30T08:14:38.135Z,101952.91
2022-07-30T08:17:05.033Z,101948.44
2022-07-30T08:19:31.981Z,101954.56
2022-07-30T08:21:59.692Z,101950.63
2022-07-30T08:24:26.997Z,101955.66
2022-07-30T08:26:53.906Z,101956.25
2022-07-30T08:29:20.544Z,101955.84
2022-07-30T08:31:47.366Z,101951.25
2022-07-30T08:34:14.411Z,101962.94
2022-07-30T08:36:41.380Z,101959.22
2022-07-30T08:39:08.596Z,101954.31
2022-07-30T08:41:36.408Z,101953.56
2022-07-30T08:44:04.755Z,101939.38
2022-07-30T08:46:34.885Z,101951.56
2022-07-30T08:49:09.196Z,101951.91
2022-07-30T08:51:38.898Z,101948.84
2022-07-30T08:54:06.217Z,101951.44
2022-07-30T08:56:34.351Z,101957.19
2022-07-30T08:59:01.512Z,101956.19
2022-07-30T09:01:28.207Z,101955.44
2022-07-30T09:03:54.868Z,101946.38
2022-07-30T09:06:21.463Z,101954.44
2022-07-30T09:08:48.368Z,101956.78
2022-07-30T09:11:15.207Z,101959.81
2022-07-30T09:13:42.516Z,101968.59
2022-07-30T09:16:25.621Z,101971.38
2022-07-30T09:18:53.981Z,101970.56
2022-07-30T09:21:25.779Z,101967.66
2022-07-30T09:24:00.647Z,101974.81
2022-07-30T09:26:28.023Z,101974.16
2022-07-30T09:28:54.986Z,101979.50
2022-07-30T09:31:23.434Z,101974.69
2022-07-30T09:33:50.123Z,101971.13
2022-07-30T09:36:18.617Z,101981.41
2022-07-30T09:38:51.523Z,101972.47
2022-07-30T09:41:40.243Z,101970.56
2022-07-30T09:44:07.754Z,101981.22
2022-07-30T09:46:47.667Z,101971.38
2022-07-30T09:49:28.615Z,101970.28
2022-07-30T09:51:57.515Z,101970.44
2022-07-30T09:57:35.432Z,101962.34
2022-07-30T10:00:23.951Z,101962.66
2022-07-30T10:02:51.755Z,101956.38
2022-07-30T10:05:20.357Z,101960.66
2022-07-30T10:07:59.107Z,101952.78
2022-07-30T10:10:28.452Z,101941.47
2022-07-30T10:12:59.153Z,101940.34
2022-07-30T10:15:33.169Z,101952.13
2022-07-30T10:18:02.584Z,101949.56
2022-07-30T10:20:33.896Z,101937.91
2022-07-30T10:23:08.085Z,101940.00
2022-07-30T10:25:37.289Z,101935.06
2022-07-30T10:28:22.256Z,101933.94
2022-07-30T10:30:53.595Z,101942.44
2022-07-30T10:33:37.461Z,101941.03
2022-07-30T10:36:10.384Z,101943.03
2022-07-30T10:38:41.744Z,101945.44
2022-07-30T10:41:15.523Z,101937.13
2022-07-30T10:44:17.488Z,101947.88
2022-07-30T10:47:07.229Z,101952.50
2022-07-30T10:49:41.156Z,101945.03
2022-07-30T10:52:10.160Z,101949.97
2022-07-30T10:54:42.172Z,101951.47
2022-07-30T10:57:22.870Z,101947.78
2022-07-30T10:59:59.943Z,101955.16
2022-07-30T11:02:34.956Z,101959.50
2022-07-30T11:05:43.985Z,101951.59
2022-07-30T11:08:31.827Z,101947.41
2022-07-30T11:11:19.690Z,101951.75
2022-07-30T11:13:58.463Z,101952.59
2022-07-30T11:16:49.206Z,101948.72
2022-07-30T11:19:56.707Z,101956.72
2022-07-30T11:22:25.936Z,101956.78
2022-07-30T11:24:53.444Z,101949.44
2022-07-30T11:27:41.464Z,101958.78
2022-07-30T11:30:18.096Z,101955.66
2022-07-30T11:32:48.452Z,101954.81
2022-07-30T11:35:34.915Z,101953.13
2022-07-30T11:38:08.002Z,101955.47
2022-07-30T11:40:46.678Z,101949.75
2022-07-30T11:43:16.504Z,101950.81
2022-07-30T11:45:43.353Z,101943.59
2022-07-30T11:48:12.076Z,101951.41
2022-07-30T11:50:39.703Z,101948.50
2022-07-30T11:53:14.280Z,101942.84
2022-07-30T11:55:43.782Z,101943.59
2022-07-30T11:58:26.277Z,101940.22
2022-07-30T12:00:54.594Z,101936.50
2022-07-30T12:03:24.442Z,101938.88
2022-07-30T12:05:53.233Z,101936.91
2022-07-30T12:08:35.626Z,101941.38
2022-07-30T12:11:03.170Z,101935.88
2022-07-30T12:13:45.314Z,101935.75
2022-07-30T12:16:16.450Z,101936.78
2022-07-30T12:18:44.140Z,101941.47
2022-07-30T12:21:12.727Z,101954.97
2022-07-30T12:23:39.720Z,101942.41
2022-07-30T12:26:06.293Z,101940.16
2022-07-30T12:28:34.668Z,101943.78
2022-07-30T12:31:04.291Z,101937.06
2022-07-30T12:33:31.291Z,101939.91
2022-07-30T12:35:59.992Z,101939.47
2022-07-30T12:38:28.046Z,101942.25
2022-07-30T12:41:03.357Z,101936.53
2022-07-30T12:43:56.210Z,101946.63
2022-07-30T12:46:25.290Z,101942.09
2022-07-30T12:48:57.738Z,101934.25
2022-07-30T12:51:26.787Z,101947.06
2022-07-30T12:53:56.583Z,101939.72
2022-07-30T12:56:26.070Z,101949.44
2022-07-30T12:58:54.765Z,101940.66
2022-07-30T13:01:41.946Z,101936.63
2022-07-30T13:04:09.900Z,101939.31
2022-07-30T13:06:38.019Z,101938.16
2022-07-30T13:09:05.161Z,101940.91
2022-07-30T13:11:38.689Z,101941.97
2022-07-30T13:14:05.652Z,101929.06
2022-07-30T13:16:34.053Z,101935.38
2022-07-30T13:19:01.578Z,101928.00
2022-07-30T13:21:28.147Z,101932.81
2022-07-30T13:23:54.658Z,101935.56
2022-07-30T13:26:21.311Z,101934.06
2022-07-30T13:28:47.865Z,101933.44
2022-07-30T13:31:14.566Z,101926.41
2022-07-30T13:33:41.154Z,101937.09
2022-07-30T13:36:08.037Z,101935.50
2022-07-30T13:38:34.583Z,101934.84
2022-07-30T13:41:02.961Z,101930.53
2022-07-30T13:43:32.107Z,101941.59
2022-07-30T13:46:00.535Z,101937.75
2022-07-30T13:48:27.046Z,101939.25
2022-07-30T13:50:53.631Z,101940.06
2022-07-30T13:53:20.799Z,101944.78
2022-07-30T13:55:47.336Z,101939.59
2022-07-30T13:58:14.028Z,101944.88
2022-07-30T14:00:40.980Z,101943.63
2022-07-30T14:03:11.058Z,101939.53
2022-07-30T14:05:42.211Z,101945.22
2022-07-30T14:08:10.790Z,101944.06
2022-07-30T14:10:38.177Z,101934.03
2022-07-30T14:13:06.557Z,101937.44
2022-07-30T14:15:33.456Z,101927.31
2022-07-30T14:18:00.730Z,101935.19
2022-07-30T14:20:29.003Z,101927.81
2022-07-30T14:22:56.111Z,101931.94
2022-07-30T14:25:22.963Z,101926.31
2022-07-30T14:27:49.541Z,101926.34
2022-07-30T14:30:16.059Z,101925.00
2022-07-30T14:32:42.879Z,101924.47
2022-07-30T14:35:10.135Z,101931.69
2022-07-30T14:37:38.272Z,101923.03
2022-07-30T14:40:06.849Z,101925.03
2022-07-30T14:42:33.548Z,101926.97
2022-07-30T14:45:00.074Z,101932.81
2022-07-30T14:47:26.584Z,101925.56
2022-07-30T14:49:53.127Z,101923.44
2022-07-30T14:52:19.638Z,101928.50
2022-07-30T14:54:46.138Z,101919.09
2022-07-30T14:57:12.657Z,101919.13
2022-07-30T14:59:39.303Z,101925.75
2022-07-30T15:02:10.719Z,101924.50
2022-07-30T15:04:37.526Z,101918.50
2022-07-30T15:07:04.176Z,101910.75
2022-07-30T15:09:34.154Z,101926.69
2022-07-30T15:12:08.825Z,101917.16
2022-07-30T15:14:38.314Z,101919.22
2022-07-30T15:17:06.537Z,101925.22
2022-07-30T15:19:33.278Z,101917.81
2022-07-30T15:22:02.435Z,101917.63
2022-07-30T15:24:29.417Z,101921.34
2022-07-30T15:26:56.406Z,101912.56
2022-07-30T15:29:24.254Z,101913.25
2022-07-30T15:31:51.548Z,101916.22
2022-07-30T15:34:18.261Z,101915.69
2022-07-30T15:36:45.396Z,101911.16
2022-07-30T15:39:11.928Z,101910.22
2022-07-30T15:41:38.613Z,101908.88
2022-07-30T15:44:05.161Z,101909.22
2022-07-30T15:46:31.861Z,101906.31
2022-07-30T15:48:58.495Z,101913.38
2022-07-30T15:51:25.058Z,101910.53
2022-07-30T15:53:51.536Z,101911.03
2022-07-30T15:56:18.609Z,101910.81
2022-07-30T15:58:45.164Z,101904.19
2022-07-30T16:01:11.970Z,101905.81
2022-07-30T16:03:38.701Z,101911.59
2022-07-30T16:06:05.403Z,101908.38
2022-07-30T16:08:32.099Z,101916.38
2022-07-30T16:10:58.703Z,101907.44
2022-07-30T16:13:25.240Z,101915.78
2022-07-30T16:15:51.818Z,101909.97
2022-07-30T16:18:18.332Z,101902.16
2022-07-30T16:20:44.900Z,101906.59
2022-07-30T16:23:14.192Z,101904.56
2022-07-30T16:25:43.612Z,101906.16
2022-07-30T16:28:10.087Z,101897.06
2022-07-30T16:30:36.613Z,101909.25
2022-07-30T16:33:17.852Z,101905.03
2022-07-30T16:35:49.249Z,101904.50
2022-07-30T16:38:18.525Z,101902.06
2022-07-30T16:40:45.502Z,101911.97
2022-07-30T16:43:12.098Z,101904.88
2022-07-30T16:45:38.826Z,101903.34
2022-07-30T16:48:05.616Z,101891.28
2022-07-30T16:50:32.264Z,101895.00
2022-07-30T16:52:58.781Z,101895.28
2022-07-30T16:55:25.400Z,101890.97
2022-07-30T16:57:51.976Z,101905.88
2022-07-30T17:00:18.514Z,101899.75
2022-07-30T17:02:45.021Z,101890.22
2022-07-30T17:05:13.800Z,101900.81
2022-07-30T17:07:40.587Z,101895.56
2022-07-30T17:10:07.464Z,101894.84
2022-07-30T17:12:40.763Z,101896.53
2022-07-30T17:15:07.789Z,101901.97
2022-07-30T17:17:34.356Z,101895.19
2022-07-30T17:20:01.945Z,101891.09
2022-07-30T17:22:29.020Z,101889.31
2022-07-30T17:24:55.628Z,101891.25
2022-07-30T17:27:22.195Z,101888.75
2022-07-30T17:29:50.054Z,101886.22
2022-07-30T17:32:18.859Z,101890.44
2022-07-30T17:34:45.646Z,101890.44
2022-07-30T17:37:12.232Z,101881.81
2022-07-30T17:40:19.593Z,101874.00
2022-07-30T17:42:26.211Z,101881.81
2022-07-30T17:44:52.736Z,101882.63
2022-07-30T17:47:19.250Z,101869.78
2022-07-30T17:49:46.301Z,101866.28
2022-07-30T17:52:13.070Z,101858.53
2022-07-30T17:54:39.670Z,101869.06
2022-07-30T17:57:06.194Z,101877.09
2022-07-30T17:59:32.705Z,101873.59
2022-07-30T18:02:00.063Z,101871.03
2022-07-30T18:04:27.202Z,101872.94
2022-07-30T18:06:53.781Z,101865.91
2022-07-30T18:09:20.373Z,101854.44
2022-07-30T18:11:46.957Z,101850.94
2022-07-30T18:14:13.503Z,101856.22
2022-07-30T18:16:40.046Z,101852.00
2022-07-30T18:19:06.600Z,101851.06
2022-07-30T18:21:35.760Z,101858.34
2022-07-30T18:24:05.490Z,101854.94
2022-07-30T18:26:36.646Z,101856.94
2022-07-30T18:29:04.475Z,101856.88
2022-07-30T18:31:31.062Z,101856.97
2022-07-30T18:33:57.625Z,101853.34
2022-07-30T18:36:24.301Z,101848.13
2022-07-30T18:38:51.192Z,101839.75
2022-07-30T18:41:18.268Z,101843.31
2022-07-30T18:43:48.300Z,101842.59
2022-07-30T18:46:15.840Z,101847.97
2022-07-30T18:48:42.503Z,101848.09
2022-07-30T18:51:13.667Z,101844.69
2022-07-30T18:53:41.574Z,101844.00
2022-07-30T18:56:08.540Z,101845.78
2022-07-30T18:58:35.119Z,101845.00
2022-07-30T19:01:01.748Z,101845.09
2022-07-30T19:03:28.345Z,101841.69
2022-07-30T19:05:54.895Z,101846.06
2022-07-30T19:08:21.443Z,101852.31
2022-07-30T19:10:48.605Z,101846.25
2022-07-30T19:13:15.200Z,101849.84
2022-07-30T19:15:41.697Z,101846.47
2022-07-30T19:18:10.277Z,101850.03
2022-07-30T19:20:37.003Z,101838.88
2022-07-30T19:23:05.820Z,101838.03
2022-07-30T19:25:33.832Z,101834.69
2022-07-30T19:28:02.160Z,101842.66
2022-07-30T19:30:29.642Z,101848.81
2022-07-30T19:33:02.789Z,101845.47
2022-07-30T19:35:30.409Z,101842.97
2022-07-30T19:37:57.054Z,101846.44
2022-07-30T19:40:23.688Z,101845.59
2022-07-30T19:42:55.706Z,101843.06
2022-07-30T19:45:22.747Z,101849.25
2022-07-30T19:47:49.249Z,101842.31
2022-07-30T19:50:15.882Z,101851.94
2022-07-30T19:52:51.354Z,101835.44
2022-07-30T19:55:35.177Z,101850.34
2022-07-30T19:58:03.724Z,101852.06
2022-07-30T20:00:31.149Z,101849.50
2022-07-30T20:03:02.521Z,101862.53
2022-07-30T20:05:30.552Z,101853.81
2022-07-30T20:07:57.178Z,101844.34
2022-07-30T20:10:23.778Z,101840.91
2022-07-30T20:12:50.929Z,101838.34
2022-07-30T20:15:17.597Z,101847.91
2022-07-30T20:17:44.219Z,101851.47
2022-07-30T20:20:13.921Z,101840.25
2022-07-30T20:22:40.915Z,101843.81
2022-07-30T20:25:08.893Z,101846.44
2022-07-30T20:27:38.477Z,101848.19
2022-07-30T20:30:07.183Z,101854.28
2022-07-30T20:32:34.444Z,101855.19
2022-07-30T20:35:00.993Z,101847.44
2022-07-30T20:37:28.076Z,101848.28
2022-07-30T20:39:55.654Z,101849.22
2022-07-30T20:42:23.870Z,101847.50
2022-07-30T20:44:53.201Z,101845.81
2022-07-30T20:47:34.663Z,101856.28
2022-07-30T20:50:09.645Z,101851.13
2022-07-30T20:52:37.609Z,101851.13
2022-07-30T20:55:14.572Z,101868.59
2022-07-30T20:57:57.122Z,101865.13
2022-07-30T21:00:27.852Z,101861.69
2022-07-30T21:02:54.496Z,101861.75
2022-07-30T21:05:21.540Z,101865.31
2022-07-30T21:07:48.174Z,101861.81
2022-07-30T21:10:20.023Z,101854.06
2022-07-30T21:12:52.983Z,101859.28
2022-07-30T21:15:36.676Z,101860.22
2022-07-30T21:18:12.362Z,101853.25
2022-07-30T21:20:38.905Z,101847.16
2022-07-30T21:23:10.145Z,101859.41
2022-07-30T21:25:41.541Z,101849.03
2022-07-30T21:28:27.463Z,101852.53
2022-07-30T21:30:54.622Z,101843.91
2022-07-30T21:33:24.065Z,101849.97
2022-07-30T21:35:57.913Z,101843.06
2022-07-30T21:38:26.534Z,101853.53
2022-07-30T21:40:53.637Z,101850.13
2022-07-30T21:43:29.398Z,101845.75
2022-07-30T21:45:57.893Z,101852.75
2022-07-30T21:48:27.651Z,101844.97
2022-07-30T21:50:55.833Z,101851.06
2022-07-30T21:53:29.806Z,101837.19
2022-07-30T21:56:10.220Z,101841.53
2022-07-30T21:58:38.570Z,101845.03
2022-07-30T22:01:17.247Z,101830.31
2022-07-30T22:04:04.146Z,101836.44
2022-07-30T22:06:37.939Z,101842.59
2022-07-30T22:09:18.948Z,101834.81
2022-07-30T22:11:54.154Z,101827.09
2022-07-30T22:14:20.721Z,101837.53
2022-07-30T22:16:47.391Z,101840.19
2022-07-30T22:19:15.594Z,101844.53
2022-07-30T22:21:46.699Z,101838.44
2022-07-30T22:24:29.451Z,101848.91
2022-07-30T22:27:14.565Z,101846.28
2022-07-30T22:32:29.183Z,101823.78
2022-07-30T22:34:55.691Z,101835.09
2022-07-30T22:37:25.188Z,101835.91
2022-07-30T22:40:00.657Z,101836.81
2022-07-30T22:42:28.326Z,101835.09
2022-07-30T22:44:55.394Z,101836.00
2022-07-30T22:47:51.500Z,101837.72
2022-07-30T22:50:09.512Z,101828.19
2022-07-30T22:52:44.302Z,101828.25
2022-07-30T22:55:22.166Z,101824.72
2022-07-30T22:57:49.094Z,101822.94
2022-07-30T23:00:27.974Z,101821.22
2022-07-30T23:02:56.102Z,101820.47
2022-07-30T23:05:22.815Z,101822.22
2022-07-30T23:07:50.417Z,101817.91
2022-07-30T23:10:20.473Z,101814.44
2022-07-30T23:12:28.823Z,101838.50
2022-07-30T23:12:51.255Z,101811.03
2022-07-30T23:15:19.742Z,101817.13
2022-07-30T23:17:46.738Z,101815.47
2022-07-30T23:20:18.413Z,101808.56
2022-07-30T23:22:45.082Z,101809.47
2022-07-30T23:25:12.916Z,101803.38
2022-07-30T23:27:40.881Z,101808.69
2022-07-30T23:30:08.797Z,101813.88
2022-07-30T23:32:35.714Z,101814.78
2022-07-30T23:35:02.675Z,101815.72
2022-07-30T23:37:29.199Z,101815.66
2022-07-30T23:40:14.481Z,101797.47
2022-07-30T23:42:40.978Z,101817.41
2022-07-30T23:45:07.625Z,101805.25
2022-07-30T23:47:54.661Z,101802.63
2022-07-30T23:50:20.786Z,101801.00
2022-07-30T23:52:47.356Z,101802.75
2022-07-30T23:55:13.961Z,101785.38
2022-07-30T23:57:40.585Z,101788.78
